createdAt,value
2023-02-11T00:01:35.821Z,17.73
2023-02-11T00:04:03.037Z,18.13
2023-02-11T00:06:34.419Z,16.40
2023-02-11T00:09:11.251Z,17.60
2023-02-11T00:11:49.435Z,16.30
2023-02-11T00:14:25.490Z,16.70
2023-02-11T00:17:00.653Z,17.95
2023-02-11T00:19:34.052Z,17.75
2023-02-11T00:22:13.583Z,17.85
2023-02-11T00:24:46.662Z,16.50
2023-02-11T00:27:16.430Z,17.00
2023-02-11T00:29:42.917Z,17.55
2023-02-11T00:32:10.197Z,15.02
2023-02-11T00:34:46.011Z,15.20
2023-02-11T00:37:21.511Z,16.45
2023-02-11T00:39:48.255Z,17.35
2023-02-11T00:42:15.159Z,16.23
2023-02-11T00:44:51.816Z,17.60
2023-02-11T00:47:18.244Z,16.75
2023-02-11T00:49:44.818Z,15.45
2023-02-11T00:52:11.297Z,16.20
2023-02-11T00:54:37.753Z,16.45
2023-02-11T00:57:04.480Z,14.98
2023-02-11T00:59:39.342Z,15.75
2023-02-11T01:02:08.323Z,15.68
2023-02-11T01:04:34.789Z,15.68
2023-02-11T01:07:01.546Z,16.92
2023-02-11T01:09:31.204Z,15.98
2023-02-11T01:11:58.143Z,16.17
2023-02-11T01:14:24.682Z,15.15
2023-02-11T01:16:51.246Z,16.13
2023-02-11T01:19:19.595Z,15.38
2023-02-11T01:21:46.094Z,15.35
2023-02-11T01:24:15.137Z,13.63
2023-02-11T01:26:41.600Z,14.20
2023-02-11T01:29:11.819Z,14.77
2023-02-11T01:31:47.375Z,13.77
2023-02-11T01:34:14.279Z,14.25
2023-02-11T01:36:46.309Z,16.02
2023-02-11T01:39:16.074Z,15.60
2023-02-11T01:41:42.589Z,14.93
2023-02-11T01:44:45.325Z,15.35
2023-02-11T01:47:11.811Z,14.20
2023-02-11T01:49:56.394Z,15.45
2023-02-11T01:52:27.838Z,14.45
2023-02-11T01:55:03.279Z,14.82
2023-02-11T01:57:31.512Z,14.65
2023-02-11T02:00:01.051Z,15.00
2023-02-11T02:02:44.786Z,16.05
2023-02-11T02:05:17.926Z,14.65
2023-02-11T02:08:06.447Z,13.82
2023-02-11T02:10:35.335Z,13.55
2023-02-11T02:13:11.669Z,13.38
2023-02-11T02:15:41.640Z,13.60
2023-02-11T02:18:08.236Z,15.63
2023-02-11T02:20:57.311Z,14.80
2023-02-11T02:23:31.223Z,14.63
2023-02-11T02:26:03.839Z,13.98
2023-02-11T02:28:36.181Z,13.90
2023-02-11T02:31:25.383Z,13.32
2023-02-11T02:34:00.340Z,14.02
2023-02-11T02:36:45.807Z,13.57
2023-02-11T02:39:19.445Z,13.07
2023-02-11T02:41:50.907Z,14.37
2023-02-11T02:44:25.266Z,14.25
2023-02-11T02:46:52.598Z,13.15
2023-02-11T02:49:19.120Z,13.70
2023-02-11T02:51:52.337Z,14.25
2023-02-11T02:54:37.823Z,13.40
2023-02-11T02:57:10.495Z,13.55
2023-02-11T02:59:55.958Z,13.65
2023-02-11T03:05:24.437Z,13.27
2023-02-11T03:08:08.190Z,13.80
2023-02-11T03:10:41.780Z,13.45
2023-02-11T03:13:08.419Z,14.25
2023-02-11T03:15:38.492Z,13.45
2023-02-11T03:18:05.808Z,13.57
2023-02-11T03:20:35.458Z,13.52
2023-02-11T03:23:06.376Z,13.18
2023-02-11T03:25:35.862Z,15.10
2023-02-11T03:28:09.183Z,13.25
2023-02-11T03:30:49.127Z,14.15
2023-02-11T03:33:35.839Z,13.88
2023-02-11T03:36:14.156Z,14.07
2023-02-11T03:38:48.247Z,14.32
2023-02-11T03:41:15.483Z,15.80
2023-02-11T03:43:47.969Z,13.88
2023-02-11T03:46:16.429Z,13.75
2023-02-11T03:48:46.764Z,13.45
2023-02-11T03:51:18.317Z,13.77
2023-02-11T03:53:46.090Z,13.77
2023-02-11T03:56:20.325Z,14.25
2023-02-11T03:58:47.957Z,13.13
2023-02-11T04:01:18.016Z,13.55
2023-02-11T04:03:45.327Z,13.55
2023-02-11T04:06:11.893Z,13.80
2023-02-11T04:08:40.432Z,13.90
2023-02-11T04:11:07.050Z,12.07
2023-02-11T04:13:38.338Z,13.63
2023-02-11T04:16:04.977Z,13.05
2023-02-11T04:18:42.640Z,13.25
2023-02-11T04:21:10.857Z,12.18
2023-02-11T04:23:37.353Z,12.30
2023-02-11T04:26:04.324Z,12.88
2023-02-11T04:28:35.349Z,13.30
2023-02-11T04:31:08.064Z,13.18
2023-02-11T04:33:35.820Z,13.55
2023-02-11T04:36:08.404Z,12.98
2023-02-11T04:38:36.346Z,12.77
2023-02-11T04:41:03.041Z,11.85
2023-02-11T04:43:29.745Z,12.85
2023-02-11T04:45:59.760Z,12.75
2023-02-11T04:48:26.748Z,11.00
2023-02-11T04:50:53.249Z,12.95
2023-02-11T04:53:19.716Z,13.25
2023-02-11T04:55:48.791Z,12.25
2023-02-11T04:58:18.273Z,13.13
2023-02-11T05:00:45.383Z,12.07
2023-02-11T05:03:11.906Z,12.15
2023-02-11T05:05:42.207Z,11.88
2023-02-11T05:08:10.531Z,11.32
2023-02-11T05:10:45.563Z,12.60
2023-02-11T05:13:13.385Z,11.13
2023-02-11T05:15:39.897Z,12.38
2023-02-11T05:18:06.353Z,9.90
2023-02-11T05:20:32.823Z,11.88
2023-02-11T05:23:06.404Z,11.45
2023-02-11T05:25:32.938Z,11.60
2023-02-11T05:27:59.753Z,11.05
2023-02-11T05:30:27.844Z,12.43
2023-02-11T05:32:54.393Z,11.65
2023-02-11T05:35:21.333Z,11.60
2023-02-11T05:37:47.842Z,11.57
2023-02-11T05:40:14.371Z,13.13
2023-02-11T05:42:41.383Z,11.77
2023-02-11T05:45:08.035Z,11.52
2023-02-11T05:47:34.613Z,12.13
2023-02-11T05:50:01.160Z,11.13
2023-02-11T05:52:31.412Z,10.77
2023-02-11T05:54:59.064Z,10.10
2023-02-11T05:57:29.299Z,11.93
2023-02-11T06:00:04.705Z,11.38
2023-02-11T06:05:02.528Z,10.43
2023-02-11T06:07:31.707Z,12.00
2023-02-11T06:10:05.384Z,12.75
2023-02-11T06:12:39.386Z,13.30
2023-02-11T06:15:06.466Z,11.88
2023-02-11T06:17:39.172Z,10.50
2023-02-11T06:20:07.083Z,11.20
2023-02-11T06:22:40.381Z,11.93
2023-02-11T06:25:06.995Z,10.35
2023-02-11T06:27:33.459Z,10.73
2023-02-11T06:30:04.794Z,12.65
2023-02-11T06:32:46.963Z,12.73
2023-02-11T06:35:14.366Z,12.07
2023-02-11T06:37:46.475Z,11.57
2023-02-11T06:40:17.430Z,12.82
2023-02-11T06:42:44.994Z,12.82
2023-02-11T06:45:12.409Z,12.45
2023-02-11T06:47:39.640Z,12.43
2023-02-11T06:50:07.477Z,10.82
2023-02-11T06:52:35.457Z,12.57
2023-02-11T06:55:10.305Z,12.93
2023-02-11T06:57:36.786Z,12.98
2023-02-11T07:00:05.412Z,12.43
2023-02-11T07:02:32.286Z,12.73
2023-02-11T07:04:58.838Z,12.27
2023-02-11T07:07:40.889Z,12.30
2023-02-11T07:10:13.879Z,12.00
2023-02-11T07:12:42.934Z,12.38
2023-02-11T07:15:09.610Z,14.30
2023-02-11T07:17:36.401Z,13.68
2023-02-11T07:20:09.980Z,13.25
2023-02-11T07:22:36.797Z,12.25
2023-02-11T07:25:10.044Z,12.50
2023-02-11T07:27:36.526Z,11.27
2023-02-11T07:30:09.922Z,12.50
2023-02-11T07:32:36.389Z,12.55
2023-02-11T07:35:08.324Z,12.05
2023-02-11T07:37:35.423Z,12.20
2023-02-11T07:40:02.493Z,12.35
2023-02-11T07:42:31.514Z,11.95
2023-02-11T07:44:59.719Z,11.65
2023-02-11T07:47:35.954Z,11.13
2023-02-11T07:50:06.928Z,10.77
2023-02-11T07:52:33.371Z,12.07
2023-02-11T07:54:59.840Z,11.95
2023-02-11T07:57:31.014Z,12.20
2023-02-11T07:59:59.700Z,11.93
2023-02-11T08:02:26.790Z,11.25
2023-02-11T08:04:53.361Z,12.63
2023-02-11T08:07:21.536Z,13.65
2023-02-11T08:09:48.308Z,12.05
2023-02-11T08:12:14.806Z,13.13
2023-02-11T08:14:49.661Z,13.50
2023-02-11T08:17:17.727Z,12.85
2023-02-11T08:19:44.288Z,12.45
2023-02-11T08:22:10.782Z,12.00
2023-02-11T08:24:37.230Z,11.68
2023-02-11T08:27:03.806Z,11.80
2023-02-11T08:29:30.736Z,10.90
2023-02-11T08:31:57.274Z,11.80
2023-02-11T08:34:27.904Z,11.88
2023-02-11T08:36:54.527Z,12.48
2023-02-11T08:39:22.191Z,12.18
2023-02-11T08:41:54.346Z,11.35
2023-02-11T08:44:21.152Z,10.80
2023-02-11T08:46:48.558Z,12.48
2023-02-11T08:51:51.151Z,11.43
2023-02-11T08:54:17.849Z,12.52
2023-02-11T08:56:52.592Z,11.98
2023-02-11T08:59:20.814Z,13.00
2023-02-11T09:01:47.532Z,12.25
2023-02-11T09:04:14.382Z,12.82
2023-02-11T09:06:41.015Z,13.00
2023-02-11T09:09:11.795Z,13.25
2023-02-11T09:11:38.333Z,14.27
2023-02-11T09:14:08.520Z,14.23
2023-02-11T09:16:37.556Z,14.40
2023-02-11T09:19:10.379Z,15.50
2023-02-11T09:21:36.935Z,15.73
2023-02-11T09:24:11.972Z,14.50
2023-02-11T09:26:39.593Z,15.10
2023-02-11T09:29:06.091Z,15.38
2023-02-11T09:31:33.803Z,15.95
2023-02-11T09:34:01.846Z,14.77
2023-02-11T09:36:38.465Z,15.48
2023-02-11T09:39:06.996Z,16.05
2023-02-11T09:41:33.487Z,15.65
2023-02-11T09:44:04.629Z,15.65
2023-02-11T09:46:40.553Z,16.38
2023-02-11T09:49:08.548Z,16.65
2023-02-11T09:51:42.350Z,14.95
2023-02-11T09:54:16.948Z,15.82
2023-02-11T09:56:53.052Z,15.07
2023-02-11T09:59:24.219Z,15.90
2023-02-11T10:02:13.150Z,15.70
2023-02-11T10:04:39.675Z,17.27
2023-02-11T10:07:24.346Z,16.88
2023-02-11T10:10:07.720Z,17.38
2023-02-11T10:12:58.613Z,16.88
2023-02-11T10:16:00.425Z,17.17
2023-02-11T10:18:40.642Z,17.48
2023-02-11T10:21:10.318Z,17.63
2023-02-11T10:23:39.448Z,15.73
2023-02-11T10:26:15.052Z,16.95
2023-02-11T10:28:44.511Z,16.90
2023-02-11T10:31:13.710Z,16.65
2023-02-11T10:33:58.827Z,15.32
2023-02-11T10:36:39.706Z,15.75
2023-02-11T10:39:15.265Z,15.27
2023-02-11T10:41:43.888Z,16.27
2023-02-11T10:44:32.794Z,16.15
2023-02-11T10:47:02.177Z,17.10
2023-02-11T10:49:42.616Z,16.15
2023-02-11T10:52:14.610Z,16.88
2023-02-11T10:54:42.629Z,16.63
2023-02-11T10:57:18.086Z,17.45
2023-02-11T10:59:44.791Z,17.85
2023-02-11T11:04:56.624Z,16.33
2023-02-11T11:07:25.234Z,15.88
2023-02-11T11:09:53.247Z,15.73
2023-02-11T11:12:27.589Z,15.75
2023-02-11T11:14:58.917Z,16.58
2023-02-11T11:17:25.457Z,17.30
2023-02-11T11:19:51.913Z,15.75
2023-02-11T11:22:22.328Z,17.65
2023-02-11T11:27:27.788Z,17.83
2023-02-11T11:29:55.378Z,17.80
2023-02-11T11:32:35.940Z,17.02
2023-02-11T11:35:08.180Z,17.23
2023-02-11T11:37:43.742Z,18.02
2023-02-11T11:40:18.562Z,17.80
2023-02-11T11:42:45.086Z,16.73
2023-02-11T11:45:17.698Z,18.00
2023-02-11T11:47:58.928Z,17.50
2023-02-11T11:50:27.368Z,17.38
2023-02-11T11:53:01.676Z,17.00
2023-02-11T11:55:41.992Z,16.63
2023-02-11T11:58:20.358Z,16.98
2023-02-11T12:01:02.268Z,17.38
2023-02-11T12:03:49.767Z,16.75
2023-02-11T12:06:16.246Z,16.10
2023-02-11T12:09:01.181Z,16.70
2023-02-11T12:11:34.878Z,15.57
2023-02-11T12:14:01.349Z,17.13
2023-02-11T12:16:28.250Z,17.73
2023-02-11T12:19:13.143Z,16.92
2023-02-11T12:22:06.020Z,15.75
2023-02-11T12:24:44.672Z,16.17
2023-02-11T12:27:12.268Z,16.05
2023-02-11T12:29:41.907Z,15.43
2023-02-11T12:32:14.448Z,17.15
2023-02-11T12:34:53.592Z,16.23
2023-02-11T12:37:38.605Z,16.83
2023-02-11T12:40:21.050Z,17.35
2023-02-11T12:43:17.259Z,16.40
2023-02-11T12:48:44.658Z,15.75
2023-02-11T12:51:27.786Z,17.13
2023-02-11T12:54:12.817Z,15.77
2023-02-11T12:56:39.216Z,15.45
2023-02-11T12:59:08.496Z,16.33
2023-02-11T13:01:41.803Z,16.33
2023-02-11T13:04:08.291Z,16.67
2023-02-11T13:06:37.495Z,15.73
2023-02-11T13:09:05.449Z,14.90
2023-02-11T13:11:40.307Z,16.38
2023-02-11T13:14:10.060Z,15.23
2023-02-11T13:16:39.802Z,16.67
2023-02-11T13:19:24.895Z,15.45
2023-02-11T13:22:13.275Z,15.63
2023-02-11T13:24:56.770Z,15.48
2023-02-11T13:27:23.281Z,15.57
2023-02-11T13:29:49.724Z,15.52
2023-02-11T13:32:16.216Z,17.35
2023-02-11T13:34:42.647Z,16.02
2023-02-11T13:37:27.866Z,17.75
2023-02-11T13:40:20.940Z,17.15
2023-02-11T13:42:54.742Z,17.77
2023-02-11T13:45:32.766Z,17.08
2023-02-11T13:48:00.164Z,16.90
2023-02-11T13:50:36.441Z,17.23
2023-02-11T13:53:03.761Z,16.83
2023-02-11T13:55:30.874Z,15.40
2023-02-11T13:58:06.734Z,16.38
2023-02-11T14:00:36.065Z,16.17
2023-02-11T14:03:15.391Z,16.25
2023-02-11T14:06:07.799Z,16.33
2023-02-11T14:08:35.831Z,16.30
2023-02-11T14:11:04.074Z,16.90
2023-02-11T14:13:34.862Z,16.38
2023-02-11T14:16:11.839Z,16.20
2023-02-11T14:18:44.419Z,16.27
2023-02-11T14:21:16.766Z,16.58
2023-02-11T14:23:48.162Z,16.30
2023-02-11T14:26:14.622Z,16.55
2023-02-11T14:28:42.448Z,17.35
2023-02-11T14:31:29.868Z,15.25
2023-02-11T14:34:05.402Z,17.00
2023-02-11T14:36:41.540Z,16.52
2023-02-11T14:39:29.166Z,16.60
2023-02-11T14:41:55.903Z,16.85
2023-02-11T14:44:35.325Z,18.00
2023-02-11T14:47:13.266Z,17.75
2023-02-11T14:49:40.241Z,18.00
2023-02-11T14:52:19.765Z,18.25
2023-02-11T14:54:51.839Z,17.80
2023-02-11T14:57:19.853Z,17.50
2023-02-11T14:59:55.858Z,18.15
2023-02-11T15:02:31.232Z,18.45
2023-02-11T15:05:18.929Z,18.13
2023-02-11T15:07:47.179Z,17.90
2023-02-11T15:10:22.932Z,17.80
2023-02-11T15:12:56.604Z,18.42
2023-02-11T15:15:23.283Z,16.38
2023-02-11T15:17:50.454Z,17.70
2023-02-11T15:20:21.997Z,17.35
2023-02-11T15:22:50.566Z,17.15
2023-02-11T15:25:17.485Z,16.58
2023-02-11T15:27:54.457Z,16.30
2023-02-11T15:30:29.104Z,17.48
2023-02-11T15:32:57.787Z,17.45
2023-02-11T15:35:28.220Z,17.45
2023-02-11T15:37:55.393Z,16.70
2023-02-11T15:40:23.449Z,16.98
2023-02-11T15:42:54.999Z,16.77
2023-02-11T15:45:30.936Z,17.52
2023-02-11T15:48:16.247Z,16.17
2023-02-11T15:50:43.462Z,17.70
2023-02-11T15:53:20.974Z,16.42
2023-02-11T15:55:52.889Z,18.98
2023-02-11T15:58:20.892Z,17.98
2023-02-11T16:00:55.089Z,15.52
2023-02-11T16:03:23.174Z,15.82
2023-02-11T16:05:49.862Z,15.73
2023-02-11T16:08:29.305Z,16.30
2023-02-11T16:11:03.448Z,15.93
2023-02-11T16:13:30.853Z,16.33
2023-02-11T16:16:02.489Z,15.18
2023-02-11T16:18:38.391Z,13.57
2023-02-11T16:21:07.916Z,15.32
2023-02-11T16:23:46.182Z,15.23
2023-02-11T16:26:20.950Z,17.38
2023-02-11T16:28:47.610Z,21.85
2023-02-11T16:31:14.270Z,26.40
2023-02-11T16:33:40.801Z,25.00
2023-02-11T16:36:14.208Z,21.77
2023-02-11T16:38:40.837Z,21.92
2023-02-11T16:41:10.557Z,18.42
2023-02-11T16:43:37.114Z,16.60
2023-02-11T16:46:04.470Z,14.63
2023-02-11T16:48:34.042Z,14.63
2023-02-11T16:51:00.907Z,14.50
2023-02-11T16:53:38.345Z,17.10
2023-02-11T16:56:05.078Z,16.77
2023-02-11T16:58:35.655Z,15.70
2023-02-11T17:01:08.410Z,14.48
2023-02-11T17:03:45.563Z,14.40
2023-02-11T17:06:13.043Z,13.38
2023-02-11T17:13:43.602Z,20.67
2023-02-11T17:16:14.953Z,17.33
2023-02-11T17:18:41.766Z,18.05
2023-02-11T17:21:08.363Z,19.27
2023-02-11T17:23:35.953Z,20.65
2023-02-11T17:26:02.392Z,19.85
2023-02-11T17:28:30.121Z,18.88
2023-02-11T17:30:56.755Z,18.83
2023-02-11T17:33:24.035Z,18.50
2023-02-11T17:35:50.972Z,19.67
2023-02-11T17:38:17.954Z,20.70
2023-02-11T17:40:44.767Z,18.88
2023-02-11T17:43:11.291Z,16.20
2023-02-11T17:45:41.473Z,18.95
2023-02-11T17:48:08.050Z,17.27
2023-02-11T17:50:37.636Z,19.77
2023-02-11T17:53:04.977Z,17.77
2023-02-11T17:55:34.842Z,16.60
2023-02-11T17:58:01.808Z,17.50
2023-02-11T18:00:28.306Z,16.25
2023-02-11T18:02:57.523Z,16.88
2023-02-11T18:05:25.022Z,18.95
2023-02-11T18:07:51.749Z,19.95
2023-02-11T18:10:18.978Z,19.50
2023-02-11T18:12:45.450Z,19.40
2023-02-11T18:15:12.142Z,20.58
2023-02-11T18:17:41.942Z,18.48
2023-02-11T18:20:08.969Z,19.08
2023-02-11T18:22:35.733Z,19.02
2023-02-11T18:25:02.208Z,17.63
2023-02-11T18:27:30.029Z,18.35
2023-02-11T18:29:58.017Z,18.88
2023-02-11T18:32:24.519Z,18.42
2023-02-11T18:34:54.459Z,20.00
2023-02-11T18:37:20.965Z,19.38
2023-02-11T18:39:53.882Z,19.77
2023-02-11T18:42:20.430Z,18.95
2023-02-11T18:44:47.025Z,20.00
2023-02-11T18:47:13.540Z,19.73
2023-02-11T18:49:40.027Z,20.52
2023-02-11T18:52:06.499Z,19.98
2023-02-11T18:54:39.510Z,20.30
2023-02-11T18:57:06.264Z,20.45
2023-02-11T18:59:32.722Z,20.27
2023-02-11T19:02:04.026Z,20.40
2023-02-11T19:04:30.856Z,19.60
2023-02-11T19:06:58.066Z,20.52
2023-02-11T19:09:24.511Z,19.48
2023-02-11T19:11:56.938Z,19.80
2023-02-11T19:14:28.090Z,18.63
2023-02-11T19:17:01.862Z,18.83
2023-02-11T19:19:40.749Z,19.13
2023-02-11T19:22:10.426Z,19.15
2023-02-11T19:24:37.202Z,20.25
2023-02-11T19:27:04.761Z,19.85
2023-02-11T19:29:31.632Z,20.25
2023-02-11T19:31:58.262Z,18.73
2023-02-11T19:34:26.725Z,20.15
2023-02-11T19:36:54.090Z,19.80
2023-02-11T19:39:20.840Z,20.25
2023-02-11T19:41:47.305Z,21.15
2023-02-11T19:44:14.646Z,22.50
2023-02-11T19:46:50.013Z,19.98
2023-02-11T19:49:17.487Z,19.58
2023-02-11T19:51:55.826Z,20.60
2023-02-11T19:54:28.878Z,23.30
2023-02-11T19:56:56.222Z,21.48
2023-02-11T20:02:10.388Z,19.00
2023-02-11T20:04:37.222Z,19.60
2023-02-11T20:07:06.762Z,20.90
2023-02-11T20:09:33.513Z,20.55
2023-02-11T20:12:08.395Z,19.98
2023-02-11T20:14:37.004Z,20.23
2023-02-11T20:17:24.482Z,20.00
2023-02-11T20:19:51.619Z,18.48
2023-02-11T20:22:21.434Z,18.08
2023-02-11T20:24:50.846Z,18.45
2023-02-11T20:27:19.906Z,17.60
2023-02-11T20:29:46.563Z,17.25
2023-02-11T20:32:32.711Z,17.45
2023-02-11T20:35:11.647Z,18.25
2023-02-11T20:37:38.183Z,19.55
2023-02-11T20:40:06.237Z,20.58
2023-02-11T20:42:32.770Z,19.17
2023-02-11T20:45:05.506Z,19.52
2023-02-11T20:50:06.798Z,17.27
2023-02-11T20:52:33.549Z,18.80
2023-02-11T20:54:59.994Z,18.77
2023-02-11T20:57:35.707Z,18.35
2023-02-11T21:00:02.351Z,18.20
2023-02-11T21:05:15.124Z,16.60
2023-02-11T21:07:56.049Z,16.85
2023-02-11T21:10:39.975Z,17.77
2023-02-11T21:13:06.680Z,15.88
2023-02-11T21:15:33.112Z,16.65
2023-02-11T21:18:00.060Z,15.82
2023-02-11T21:20:35.871Z,16.85
2023-02-11T21:23:02.442Z,15.80
2023-02-11T21:25:31.668Z,15.68
2023-02-11T21:30:46.700Z,17.17
2023-02-11T21:33:15.620Z,17.60
2023-02-11T21:35:47.353Z,17.08
2023-02-11T21:38:20.093Z,15.10
2023-02-11T21:40:47.088Z,15.88
2023-02-11T21:43:13.543Z,16.63
2023-02-11T21:45:43.676Z,13.65
2023-02-11T21:48:13.217Z,13.38
2023-02-11T21:50:43.678Z,17.27
2023-02-11T21:53:16.473Z,16.90
2023-02-11T21:55:43.340Z,17.10
2023-02-11T21:58:10.666Z,16.55
2023-02-11T22:03:15.313Z,15.10
2023-02-11T22:05:45.223Z,14.90
2023-02-11T22:08:11.706Z,18.67
2023-02-11T22:10:46.973Z,16.48
2023-02-11T22:13:16.057Z,16.27
2023-02-11T22:15:44.778Z,18.20
2023-02-11T22:18:28.067Z,16.83
2023-02-11T22:21:03.770Z,15.85
2023-02-11T22:23:30.435Z,17.50
2023-02-11T22:25:58.185Z,15.95
2023-02-11T22:28:27.440Z,14.48
2023-02-11T22:30:57.682Z,14.52
2023-02-11T22:33:28.641Z,13.57
2023-02-11T22:36:01.721Z,15.40
2023-02-11T22:38:30.387Z,17.60
2023-02-11T22:41:02.043Z,15.32
2023-02-11T22:43:28.515Z,15.10
2023-02-11T22:45:55.343Z,15.18
2023-02-11T22:48:28.562Z,16.80
2023-02-11T22:50:55.054Z,14.50
2023-02-11T22:53:21.520Z,14.65
2023-02-11T22:55:56.977Z,13.80
2023-02-11T22:58:28.218Z,14.70
2023-02-11T23:00:54.667Z,14.93
2023-02-11T23:03:21.149Z,14.85
2023-02-11T23:05:58.178Z,13.00
2023-02-11T23:08:25.087Z,13.50
2023-02-11T23:10:51.700Z,12.35
2023-02-11T23:13:18.239Z,12.32
2023-02-11T23:15:45.386Z,13.63
2023-02-11T23:18:12.844Z,12.00
2023-02-11T23:20:40.753Z,11.10
2023-02-11T23:23:08.224Z,10.45
2023-02-11T23:25:35.016Z,12.20
2023-02-11T23:28:02.269Z,10.65
2023-02-11T23:30:28.947Z,11.38
2023-02-11T23:32:55.681Z,11.52
2023-02-11T23:35:22.201Z,11.32
2023-02-11T23:37:55.843Z,10.70
2023-02-11T23:43:03.203Z,10.40
2023-02-11T23:45:35.830Z,9.40
2023-02-11T23:48:02.358Z,9.43
2023-02-11T23:50:32.131Z,9.75
2023-02-11T23:53:02.277Z,8.18
2023-02-11T23:55:28.784Z,9.18
2023-02-11T23:57:55.472Z,8.88
